Time;durP1;ratioP1;P1;durP2;ratioP2;P2;SDS_P1;SDS_P2;PMS_P1;PMS_P2;Temp;Humidity;BMP_temperature;BMP_pressure;BME280_temperature;BME280_humidity;BME280_pressure;Samples;Min_cycle;Max_cycle;Signal;HPM_P1;HPM_P2
2023/08/05 00:00:42;;;;;;;;;;;;;;;19.59;45.38;100452.66;4903452;28;98089;-70
2023/08/05 00:03:09;;;;;;;;;;;;;;;19.56;45.17;100464.22;4889031;28;98270;-70
2023/08/05 00:05:37;;;;;;;;;;;;;;;19.52;45.40;100457.81;4895906;28;100146;-78
2023/08/05 00:08:05;;;;;;;;;;;;;;;19.48;45.52;100468.59;4893358;28;98793;-70
2023/08/05 00:10:36;;;;;;;;;;;;;;;19.47;45.36;100452.53;4894329;28;98057;-70
2023/08/05 00:13:02;;;;;;;;;;;;;;;19.45;45.52;100447.38;4878464;28;98620;-70
2023/08/05 00:15:28;;;;;;;;;;;;;;;19.45;45.43;100444.66;4892980;28;98004;-78
2023/08/05 00:17:55;;;;;;;;;;;;;;;19.44;45.37;100442.25;4873778;28;98163;-70
2023/08/05 00:20:21;;;;;;;;;;;;;;;19.43;45.23;100446.94;4901806;28;99719;-70
2023/08/05 00:22:48;;;;;;;;;;;;;;;19.43;45.26;100451.59;4898320;28;98597;-78
2023/08/05 00:25:14;;;;;;;;;;;;;;;19.40;45.44;100447.56;4872903;28;99324;-69
2023/08/05 00:27:40;;;;;;;;;;;;;;;19.37;45.53;100456.41;4892244;28;97991;-77
2023/08/05 00:30:07;;;;;;;;;;;;;;;19.33;45.28;100461.72;4873254;28;100020;-70
2023/08/05 00:32:36;;;;;;;;;;;;;;;19.29;45.50;100451.78;4892412;28;98075;-78
2023/08/05 00:35:04;;;;;;;;;;;;;;;19.26;45.35;100460.66;4893148;28;98003;-78
2023/08/05 00:37:33;;;;;;;;;;;;;;;19.22;45.52;100449.56;4892309;28;98282;-70
2023/08/05 00:40:00;;;;;;;;;;;;;;;19.21;45.55;100458.88;4904797;28;98068;-70
2023/08/05 00:42:30;;;;;;;;;;;;;;;19.19;45.56;100458.41;4893291;28;98755;-78
2023/08/05 00:44:58;;;;;;;;;;;;;;;19.17;45.41;100448.94;4891059;28;98238;-77
2023/08/05 00:47:25;;;;;;;;;;;;;;;19.14;45.66;100447.66;4871202;28;98072;-70
2023/08/05 00:49:52;;;;;;;;;;;;;;;19.13;45.56;100443.31;4891520;28;98886;-78
2023/08/05 00:52:21;;;;;;;;;;;;;;;19.11;45.57;100443.66;4892080;28;98264;-70
2023/08/05 00:54:48;;;;;;;;;;;;;;;19.11;45.44;100445.56;4904492;28;98064;-78
2023/08/05 00:57:16;;;;;;;;;;;;;;;19.08;45.56;100444.28;4869606;28;98601;-78
2023/08/05 00:59:42;;;;;;;;;;;;;;;19.05;45.49;100434.00;4914585;28;97950;-70
2023/08/05 01:02:09;;;;;;;;;;;;;;;19.03;45.46;100435.47;4908532;28;98337;-78
2023/08/05 01:04:36;;;;;;;;;;;;;;;19.01;45.44;100437.72;4874585;28;98227;-69
2023/08/05 01:07:03;;;;;;;;;;;;;;;18.98;45.55;100443.81;4889667;28;98232;-70
2023/08/05 01:09:30;;;;;;;;;;;;;;;18.95;45.40;100434.38;4887163;28;98312;-70
2023/08/05 01:11:57;;;;;;;;;;;;;;;18.94;45.44;100437.41;4909207;28;98174;-78
2023/08/05 01:14:26;;;;;;;;;;;;;;;18.94;45.53;100440.94;4872658;28;98020;-70
2023/08/05 01:16:53;;;;;;;;;;;;;;;18.94;45.76;100434.66;4891926;28;97926;-70
2023/08/05 01:19:20;;;;;;;;;;;;;;;18.92;45.68;100432.28;4898924;28;98457;-70
2023/08/05 01:22:03;;;;;;;;;;;;;;;18.93;45.63;100430.34;4893288;28;98228;-78
2023/08/05 01:24:43;;;;;;;;;;;;;;;18.93;45.79;100438.53;4923359;28;102512;-70
2023/08/05 01:27:10;;;;;;;;;;;;;;;18.92;45.70;100426.81;4874413;28;99259;-70
2023/08/05 01:29:36;;;;;;;;;;;;;;;18.91;45.58;100438.06;4873366;28;98346;-74
2023/08/05 01:32:03;;;;;;;;;;;;;;;18.89;45.70;100438.38;4886677;28;98251;-70
2023/08/05 01:34:31;;;;;;;;;;;;;;;18.86;45.74;100430.81;4888120;28;98103;-78
2023/08/05 01:36:57;;;;;;;;;;;;;;;18.86;45.59;100430.81;4887433;28;98721;-70
2023/08/05 01:39:25;;;;;;;;;;;;;;;18.84;45.58;100430.34;4890578;28;98014;-78
2023/08/05 01:41:52;;;;;;;;;;;;;;;18.83;45.62;100429.56;4878064;28;99376;-69
2023/08/05 01:44:19;;;;;;;;;;;;;;;18.82;45.71;100433.44;4872630;28;98251;-78
2023/08/05 01:46:45;;;;;;;;;;;;;;;18.82;45.77;100429.88;4907172;28;99984;-78
2023/08/05 01:49:11;;;;;;;;;;;;;;;18.80;45.80;100422.00;4889068;28;98067;-70
2023/08/05 01:51:38;;;;;;;;;;;;;;;18.78;45.54;100420.72;4878122;28;98216;-70
2023/08/05 01:54:06;;;;;;;;;;;;;;;18.77;45.54;100421.84;4872734;28;98159;-70
2023/08/05 01:56:32;;;;;;;;;;;;;;;18.76;45.54;100429.25;4916806;28;98405;-70
2023/08/05 01:58:59;;;;;;;;;;;;;;;18.72;45.63;100431.00;4878201;28;98117;-70
2023/08/05 02:01:45;;;;;;;;;;;;;;;18.69;45.56;100430.81;4903581;28;98158;-73
2023/08/05 02:04:13;;;;;;;;;;;;;;;18.68;45.71;100430.03;4874912;28;98414;-70
2023/08/05 02:06:39;;;;;;;;;;;;;;;18.67;45.72;100425.69;4891065;28;98442;-70
2023/08/05 02:09:06;;;;;;;;;;;;;;;18.67;45.61;100433.06;4876926;28;100521;-78
2023/08/05 02:11:33;;;;;;;;;;;;;;;18.67;45.68;100443.97;4905332;28;98675;-70
2023/08/05 02:14:00;;;;;;;;;;;;;;;18.64;45.81;100442.72;4880901;28;98397;-70
2023/08/05 02:16:26;;;;;;;;;;;;;;;18.62;45.70;100445.75;4871523;28;98138;-78
2023/08/05 02:18:53;;;;;;;;;;;;;;;18.60;45.99;100442.56;4891605;28;98102;-70
2023/08/05 02:21:22;;;;;;;;;;;;;;;18.61;45.90;100437.88;4876735;28;97911;-78
2023/08/05 02:23:50;;;;;;;;;;;;;;;18.59;45.62;100430.03;4889089;28;98253;-78
2023/08/05 02:26:19;;;;;;;;;;;;;;;18.60;45.81;100434.38;4892948;28;98102;-77
2023/08/05 02:28:46;;;;;;;;;;;;;;;18.60;45.82;100439.81;4871901;28;98135;-70
2023/08/05 02:31:16;;;;;;;;;;;;;;;18.60;45.76;100430.84;4887180;28;98177;-78
2023/08/05 02:33:42;;;;;;;;;;;;;;;18.57;45.97;100426.81;4895389;28;98325;-78
2023/08/05 02:36:09;;;;;;;;;;;;;;;18.57;45.82;100432.28;4889960;28;98384;-70
2023/08/05 02:38:35;;;;;;;;;;;;;;;18.56;45.77;100432.59;4889088;28;99992;-69
2023/08/05 02:41:06;;;;;;;;;;;;;;;18.52;45.86;100432.44;4875662;28;98339;-78
2023/08/05 02:43:33;;;;;;;;;;;;;;;18.50;45.78;100421.03;4891294;28;98013;-77
2023/08/05 02:45:59;;;;;;;;;;;;;;;18.48;45.72;100423.28;4905454;28;98252;-70
2023/08/05 02:48:25;;;;;;;;;;;;;;;18.46;45.82;100425.53;4905768;28;97934;-70
2023/08/05 02:50:53;;;;;;;;;;;;;;;18.44;45.84;100424.25;4908883;28;98245;-78
2023/08/05 02:53:20;;;;;;;;;;;;;;;18.40;45.95;100422.16;4876683;28;98235;-78
2023/08/05 02:55:46;;;;;;;;;;;;;;;18.37;45.80;100417.34;4890026;28;98276;-78
2023/08/05 02:58:15;;;;;;;;;;;;;;;18.36;45.84;100413.00;4902349;28;98158;-77
2023/08/05 03:00:42;;;;;;;;;;;;;;;18.35;45.89;100424.22;4859999;28;98213;-78
2023/08/05 03:03:09;;;;;;;;;;;;;;;18.32;46.00;100419.44;4898577;28;98039;-78
2023/08/05 03:05:36;;;;;;;;;;;;;;;18.28;45.64;100415.75;4887599;28;98202;-77
2023/08/05 03:08:02;;;;;;;;;;;;;;;18.24;45.63;100415.56;4887934;28;98197;-70
2023/08/05 03:10:29;;;;;;;;;;;;;;;18.21;45.99;100420.88;4914562;28;97948;-70
2023/08/05 03:12:55;;;;;;;;;;;;;;;18.18;46.01;100422.31;4871254;28;98272;-70
2023/08/05 03:15:22;;;;;;;;;;;;;;;18.16;45.83;100416.38;4903996;28;98497;-78
2023/08/05 03:17:48;;;;;;;;;;;;;;;18.15;45.93;100423.72;4920020;28;98659;-70
2023/08/05 03:20:34;;;;;;;;;;;;;;;18.14;45.90;100426.78;4903865;28;98269;-78
2023/08/05 03:23:04;;;;;;;;;;;;;;;18.11;46.09;100438.31;4898505;28;98250;-70
2023/08/05 03:25:30;;;;;;;;;;;;;;;18.10;46.04;100442.19;4905668;28;100129;-69
2023/08/05 03:27:56;;;;;;;;;;;;;;;18.08;45.88;100444.44;4873719;28;99079;-70
2023/08/05 03:30:23;;;;;;;;;;;;;;;18.06;45.92;100444.75;4896373;28;98230;-70
2023/08/05 03:32:50;;;;;;;;;;;;;;;18.06;45.98;100441.22;4890054;28;100275;-70
2023/08/05 03:35:17;;;;;;;;;;;;;;;18.03;46.01;100448.09;4903437;28;97994;-77
2023/08/05 03:37:44;;;;;;;;;;;;;;;18.04;45.97;100448.94;4901314;28;98465;-70
2023/08/05 03:40:11;;;;;;;;;;;;;;;18.02;45.91;100451.94;4877295;28;99366;-70
2023/08/05 03:42:38;;;;;;;;;;;;;;;18.04;45.96;100457.09;4878246;28;98585;-77
2023/08/05 03:45:06;;;;;;;;;;;;;;;18.04;46.12;100462.56;4910406;28;97954;-77
2023/08/05 03:47:33;;;;;;;;;;;;;;;18.04;46.07;100473.47;4907555;28;98058;-77
2023/08/05 03:50:00;;;;;;;;;;;;;;;18.04;45.83;100473.47;4877256;28;98305;-77
2023/08/05 03:52:29;;;;;;;;;;;;;;;18.05;45.86;100464.97;4896282;28;100224;-77
2023/08/05 03:54:56;;;;;;;;;;;;;;;18.07;45.98;100462.69;4893740;28;99272;-77
2023/08/05 03:57:23;;;;;;;;;;;;;;;18.09;45.79;100457.75;4893619;28;98177;-70
2023/08/05 03:59:50;;;;;;;;;;;;;;;18.12;45.81;100450.88;4878528;28;98146;-70
2023/08/05 04:02:18;;;;;;;;;;;;;;;18.14;45.93;100451.34;4890227;28;97929;-70
2023/08/05 04:04:46;;;;;;;;;;;;;;;18.15;45.89;100458.38;4877511;28;98027;-69
2023/08/05 04:07:12;;;;;;;;;;;;;;;18.17;45.93;100456.16;4929401;28;100382;-70
2023/08/05 04:09:39;;;;;;;;;;;;;;;18.16;45.92;100451.84;4904908;28;98896;-70
2023/08/05 04:12:08;;;;;;;;;;;;;;;18.18;45.74;100465.16;4904348;28;98372;-70
2023/08/05 04:14:37;;;;;;;;;;;;;;;18.17;45.73;100467.06;4875953;28;98005;-69
2023/08/05 04:17:05;;;;;;;;;;;;;;;18.17;45.74;100466.28;4896329;28;99055;-70
2023/08/05 04:19:37;;;;;;;;;;;;;;;18.19;45.75;100481.19;4875443;28;98209;-70
2023/08/05 04:22:04;;;;;;;;;;;;;;;18.19;45.71;100480.38;4879239;28;98361;-70
2023/08/05 04:24:32;;;;;;;;;;;;;;;18.21;45.73;100478.16;4883147;28;98032;-77
2023/08/05 04:26:59;;;;;;;;;;;;;;;18.24;45.78;100477.53;4882892;28;97831;-77
2023/08/05 04:29:26;;;;;;;;;;;;;;;18.26;45.61;100470.59;4915278;28;98109;-77
2023/08/05 04:31:53;;;;;;;;;;;;;;;18.30;45.81;100474.31;4881294;28;98280;-78
2023/08/05 04:34:19;;;;;;;;;;;;;;;18.34;45.60;100466.28;4878053;28;98127;-70
2023/08/05 04:36:50;;;;;;;;;;;;;;;18.37;45.53;100460.19;4872752;28;99724;-76
2023/08/05 04:39:20;;;;;;;;;;;;;;;18.42;45.47;100462.75;4894154;28;98404;-77
2023/08/05 04:41:46;;;;;;;;;;;;;;;18.47;45.47;100461.78;4872128;28;98121;-77
2023/08/05 04:44:14;;;;;;;;;;;;;;;18.51;45.53;100462.75;4874696;28;98362;-70
2023/08/05 04:46:42;;;;;;;;;;;;;;;18.54;45.44;100465.66;4892157;28;99476;-77
2023/08/05 04:49:11;;;;;;;;;;;;;;;18.57;45.43;100458.75;4874415;28;98169;-77
2023/08/05 04:51:38;;;;;;;;;;;;;;;18.61;45.50;100465.19;4882184;28;98461;-77
2023/08/05 04:54:05;;;;;;;;;;;;;;;18.66;45.49;100465.03;4873603;28;98915;-77
2023/08/05 04:56:33;;;;;;;;;;;;;;;18.69;45.28;100455.41;4878669;28;98328;-70
2023/08/05 04:59:00;;;;;;;;;;;;;;;18.75;45.30;100454.94;4876995;28;99016;-69
2023/08/05 05:01:27;;;;;;;;;;;;;;;18.80;45.18;100465.69;4889635;28;98297;-70
2023/08/05 05:03:54;;;;;;;;;;;;;;;18.82;45.23;100458.00;4874148;28;98049;-70
2023/08/05 05:06:21;;;;;;;;;;;;;;;18.86;45.28;100467.16;4884770;28;98202;-69
2023/08/05 05:08:48;;;;;;;;;;;;;;;18.89;45.19;100469.22;4891618;28;100318;-77
2023/08/05 05:11:15;;;;;;;;;;;;;;;18.93;45.31;100474.03;4869500;28;98167;-69
2023/08/05 05:13:43;;;;;;;;;;;;;;;18.97;45.19;100477.72;4869644;28;98059;-69
2023/08/05 05:16:11;;;;;;;;;;;;;;;19.02;45.26;100478.38;4873319;28;99222;-69
2023/08/05 05:18:38;;;;;;;;;;;;;;;19.06;45.06;100476.59;4904501;28;97951;-78
2023/08/05 05:21:04;;;;;;;;;;;;;;;19.12;45.02;100479.94;4921593;28;98831;-77
2023/08/05 05:23:31;;;;;;;;;;;;;;;19.17;45.13;100477.03;4904594;28;98149;-77
2023/08/05 05:25:58;;;;;;;;;;;;;;;19.23;45.04;100478.50;4872886;28;100089;-77
2023/08/05 05:28:25;;;;;;;;;;;;;;;19.29;45.13;100471.72;4876622;28;98011;-78
2023/08/05 05:30:52;;;;;;;;;;;;;;;19.37;44.89;100468.19;4888765;28;99024;-70
2023/08/05 05:33:19;;;;;;;;;;;;;;;19.48;44.79;100476.00;4867150;28;98069;-69
2023/08/05 05:35:48;;;;;;;;;;;;;;;19.59;44.88;100472.59;4879252;28;99037;-69
2023/08/05 05:38:14;;;;;;;;;;;;;;;19.71;44.72;100471.94;4870538;28;98998;-69
2023/08/05 05:40:41;;;;;;;;;;;;;;;19.80;44.55;100466.41;4884985;28;98256;-70
2023/08/05 05:43:08;;;;;;;;;;;;;;;19.83;44.54;100463.81;4883883;28;98167;-70
2023/08/05 05:45:39;;;;;;;;;;;;;;;19.91;44.64;100464.91;4883680;28;99382;-69
2023/08/05 05:48:06;;;;;;;;;;;;;;;19.99;44.60;100461.31;4872231;28;98197;-77
2023/08/05 05:50:32;;;;;;;;;;;;;;;20.07;44.49;100463.22;4867767;28;97936;-77
2023/08/05 05:52:59;;;;;;;;;;;;;;;20.18;44.41;100460.91;4886368;28;98518;-77
2023/08/05 05:55:26;;;;;;;;;;;;;;;20.33;44.35;100465.78;4899082;28;98463;-74
2023/08/05 05:57:52;;;;;;;;;;;;;;;20.41;44.28;100457.84;4882324;28;98356;-77
2023/08/05 06:00:20;;;;;;;;;;;;;;;20.44;44.37;100459.94;4869417;28;98572;-69
2023/08/05 06:02:47;;;;;;;;;;;;;;;20.44;44.45;100457.19;4885449;28;98823;-77
2023/08/05 06:05:13;;;;;;;;;;;;;;;20.49;44.38;100463.28;4882879;28;98543;-69
2023/08/05 06:07:40;;;;;;;;;;;;;;;20.57;44.35;100454.19;4897851;28;97959;-69
2023/08/05 06:10:08;;;;;;;;;;;;;;;20.62;44.32;100461.41;4885652;28;97950;-78
2023/08/05 06:12:37;;;;;;;;;;;;;;;20.71;44.21;100462.16;4904470;28;98348;-79
2023/08/05 06:15:06;;;;;;;;;;;;;;;20.91;44.16;100470.69;4875370;28;98365;-70
2023/08/05 06:17:32;;;;;;;;;;;;;;;21.28;43.81;100471.59;4888753;28;97891;-78
2023/08/05 06:19:59;;;;;;;;;;;;;;;21.69;43.46;100464.34;4905690;28;98316;-78
2023/08/05 06:22:26;;;;;;;;;;;;;;;22.06;43.24;100463.22;4902622;28;98047;-70
2023/08/05 06:24:53;;;;;;;;;;;;;;;22.37;43.13;100458.28;4886685;28;97777;-78
2023/08/05 06:27:19;;;;;;;;;;;;;;;22.40;43.26;100461.13;4901715;28;98585;-70
2023/08/05 06:29:45;;;;;;;;;;;;;;;22.45;43.24;100460.88;4880151;28;98054;-79
2023/08/05 06:32:12;;;;;;;;;;;;;;;22.50;43.41;100457.88;4902114;28;98091;-70
2023/08/05 06:34:38;;;;;;;;;;;;;;;22.56;43.45;100455.72;4871253;28;98158;-80
2023/08/05 06:37:05;;;;;;;;;;;;;;;22.51;43.63;100458.69;4891860;28;99577;-70
2023/08/05 06:39:33;;;;;;;;;;;;;;;22.44;43.52;100444.75;4010098;28;10000284;-70
2023/08/05 06:42:12;;;;;;;;;;;;;;;22.50;43.66;100454.34;4423496;28;10000678;-79
2023/08/05 06:44:41;;;;;;;;;;;;;;;22.65;43.40;100445.38;4896387;28;99147;-70
2023/08/05 06:47:08;;;;;;;;;;;;;;;22.82;43.46;100443.47;4890985;28;98375;-70
2023/08/05 06:49:35;;;;;;;;;;;;;;;22.99;43.21;100441.25;4902948;28;98387;-79
2023/08/05 06:52:04;;;;;;;;;;;;;;;23.21;43.30;100439.06;4889938;28;98350;-70
2023/08/05 06:54:31;;;;;;;;;;;;;;;23.30;43.36;100436.94;4903445;28;98782;-79
2023/08/05 06:56:58;;;;;;;;;;;;;;;23.39;43.19;100440.31;4907131;28;98161;-70
2023/08/05 06:59:26;;;;;;;;;;;;;;;23.52;42.79;100441.81;4916153;28;98372;-70
2023/08/05 07:01:53;;;;;;;;;;;;;;;23.68;42.83;100438.28;4888992;28;98222;-79
2023/08/05 07:04:19;;;;;;;;;;;;;;;23.80;43.15;100440.16;4870789;28;97975;-80
2023/08/05 07:06:46;;;;;;;;;;;;;;;23.85;42.83;100443.41;4897809;28;98095;-72
2023/08/05 07:09:12;;;;;;;;;;;;;;;23.85;43.19;100440.66;4865277;28;98345;-71
2023/08/05 07:11:54;;;;;;;;;;;;;;;23.89;42.85;100449.00;4475297;28;10000507;-80
2023/08/05 07:14:20;;;;;;;;;;;;;;;23.85;42.92;100453.63;4902276;28;98113;-72
2023/08/05 07:16:47;;;;;;;;;;;;;;;23.82;43.26;100449.66;4891296;28;97980;-81
2023/08/05 07:19:13;;;;;;;;;;;;;;;23.77;43.45;100447.94;4867958;28;98210;-72
2023/08/05 07:21:41;;;;;;;;;;;;;;;23.73;43.20;100452.56;4906515;28;98516;-79
2023/08/05 07:24:07;;;;;;;;;;;;;;;23.71;43.28;100452.16;4872173;28;98133;-79
2023/08/05 07:26:39;;;;;;;;;;;;;;;23.73;43.26;100449.81;4907173;28;98023;-80
2023/08/05 07:29:06;;;;;;;;;;;;;;;23.78;43.51;100443.28;4889508;28;99211;-72
2023/08/05 07:31:33;;;;;;;;;;;;;;;23.85;43.33;100440.66;4903575;28;98152;-72
2023/08/05 07:34:02;;;;;;;;;;;;;;;23.92;43.35;100449.09;4892530;28;98574;-80
2023/08/05 07:36:29;;;;;;;;;;;;;;;24.06;43.03;100442.34;4888982;28;98429;-72
2023/08/05 07:38:55;;;;;;;;;;;;;;;24.15;42.79;100443.72;4890895;28;98062;-72
2023/08/05 07:41:25;;;;;;;;;;;;;;;24.27;42.80;100445.53;4873490;28;98180;-72
2023/08/05 07:43:58;;;;;;;;;;;;;;;24.28;42.82;100449.88;4904850;28;98258;-80
2023/08/05 07:46:31;;;;;;;;;;;;;;;24.29;43.23;100458.94;4888648;28;98586;-80
2023/08/05 07:49:00;;;;;;;;;;;;;;;24.29;42.85;100456.19;4901792;28;98182;-80
2023/08/05 07:51:26;;;;;;;;;;;;;;;24.28;43.25;100468.38;4890610;28;98571;-81
2023/08/05 07:53:57;;;;;;;;;;;;;;;24.29;43.03;100467.19;4901943;28;98427;-80
2023/08/05 07:56:25;;;;;;;;;;;;;;;24.33;43.02;100463.41;4904816;28;98535;-70
2023/08/05 07:58:52;;;;;;;;;;;;;;;24.42;42.96;100460.47;4874862;28;98218;-69
2023/08/05 08:01:21;;;;;;;;;;;;;;;24.54;43.08;100459.53;4874783;28;98064;-78
2023/08/05 08:03:48;;;;;;;;;;;;;;;24.56;43.02;100460.75;4888096;28;98477;-70
2023/08/05 08:06:18;;;;;;;;;;;;;;;24.53;42.94;100463.44;4906033;28;98240;-70
2023/08/05 08:08:44;;;;;;;;;;;;;;;24.49;43.19;100468.88;4879358;28;98095;-77
2023/08/05 08:11:11;;;;;;;;;;;;;;;24.43;43.36;100470.31;4887123;28;100872;-77
2023/08/05 08:13:38;;;;;;;;;;;;;;;24.36;43.20;100457.16;4902308;28;98165;-77
2023/08/05 08:16:05;;;;;;;;;;;;;;;24.33;43.15;100465.34;4888444;28;98186;-78
2023/08/05 08:18:33;;;;;;;;;;;;;;;24.30;43.17;100461.34;4904251;28;98173;-77
2023/08/05 08:21:00;;;;;;;;;;;;;;;24.27;43.23;100466.78;4889218;28;99134;-69
2023/08/05 08:23:28;;;;;;;;;;;;;;;24.25;43.26;100464.41;4903829;28;98382;-78
2023/08/05 08:25:58;;;;;;;;;;;;;;;24.22;43.45;100468.66;4909727;28;99805;-77
2023/08/05 08:28:26;;;;;;;;;;;;;;;24.24;43.50;100463.56;4905283;28;98146;-78
2023/08/05 08:30:56;;;;;;;;;;;;;;;24.27;43.35;100466.78;4908607;28;98641;-78
2023/08/05 08:33:26;;;;;;;;;;;;;;;24.30;43.49;100463.31;4893167;28;97939;-77
2023/08/05 08:35:54;;;;;;;;;;;;;;;24.37;43.23;100461.50;4891305;28;98132;-69
2023/08/05 08:38:22;;;;;;;;;;;;;;;24.46;43.22;100451.09;4872487;28;98643;-78
2023/08/05 08:40:51;;;;;;;;;;;;;;;24.48;43.03;100450.72;4906608;28;98615;-78
2023/08/05 08:43:19;;;;;;;;;;;;;;;24.49;43.17;100450.38;4891601;28;98168;-78
2023/08/05 08:45:50;;;;;;;;;;;;;;;24.50;43.02;100442.91;4906320;28;98089;-74
2023/08/05 08:48:16;;;;;;;;;;;;;;;24.51;43.22;100441.75;4876175;28;98657;-70
2023/08/05 08:50:43;;;;;;;;;;;;;;;24.52;43.14;100445.31;4897771;28;99781;-78
2023/08/05 08:53:11;;;;;;;;;;;;;;;24.53;43.10;100433.94;4890435;28;98423;-77
2023/08/05 08:55:41;;;;;;;;;;;;;;;24.57;43.00;100434.00;4871192;28;98267;-78
2023/08/05 08:58:11;;;;;;;;;;;;;;;24.63;42.95;100430.59;4904552;28;100136;-78
2023/08/05 09:00:38;;;;;;;;;;;;;;;24.69;43.26;100423.63;4882871;28;98369;-70
2023/08/05 09:03:06;;;;;;;;;;;;;;;24.80;42.73;100421.09;4904822;28;98455;-78
2023/08/05 09:05:46;;;;;;;;;;;;;;;24.90;42.95;100416.94;4875321;28;98172;-79
2023/08/05 09:08:13;;;;;;;;;;;;;;;25.05;42.61;100421.56;4872808;28;98190;-71
2023/08/05 09:10:44;;;;;;;;;;;;;;;25.08;42.74;100420.03;4892906;28;98149;-78
2023/08/05 09:13:11;;;;;;;;;;;;;;;25.11;42.67;100420.13;4874409;28;98313;-70
2023/08/05 09:15:38;;;;;;;;;;;;;;;25.16;42.84;100416.25;4888419;28;98413;-79
2023/08/05 09:18:05;;;;;;;;;;;;;;;25.25;42.73;100413.25;4912928;28;98351;-78
2023/08/05 09:20:40;;;;;;;;;;;;;;;25.48;42.41;100416.81;4874181;28;98408;-78
2023/08/05 09:23:11;;;;;;;;;;;;;;;25.73;42.21;100432.94;4867707;28;97965;-79
2023/08/05 09:25:41;;;;;;;;;;;;;;;25.82;42.05;100427.97;4909467;28;98425;-78
2023/08/05 09:28:08;;;;;;;;;;;;;;;25.82;42.19;100439.84;4899578;28;98034;-79
2023/08/05 09:30:35;;;;;;;;;;;;;;;25.80;42.49;100435.84;4872022;28;98093;-78
2023/08/05 09:33:03;;;;;;;;;;;;;;;25.74;42.55;100437.28;4873016;28;97926;-79
2023/08/05 09:35:29;;;;;;;;;;;;;;;25.73;42.56;100435.72;4893116;28;97999;-79
2023/08/05 09:37:55;;;;;;;;;;;;;;;25.76;42.47;100433.00;4909415;28;98247;-78
2023/08/05 09:40:32;;;;;;;;;;;;;;;25.69;42.75;100424.63;4891085;28;97999;-78
2023/08/05 09:43:03;;;;;;;;;;;;;;;25.67;42.55;100421.44;4891912;28;97900;-72
2023/08/05 09:45:32;;;;;;;;;;;;;;;25.61;42.52;100431.19;4907568;28;98261;-78
2023/08/05 09:48:09;;;;;;;;;;;;;;;25.53;42.88;100419.25;4895274;28;98302;-71
2023/08/05 09:50:40;;;;;;;;;;;;;;;25.52;42.88;100419.63;4874129;28;98661;-71
2023/08/05 09:53:11;;;;;;;;;;;;;;;25.57;42.81;100414.56;4906936;28;100721;-71
2023/08/05 09:55:43;;;;;;;;;;;;;;;25.62;42.92;100419.81;4875675;28;98026;-79
2023/08/05 09:58:10;;;;;;;;;;;;;;;25.65;42.93;100410.75;4864047;28;98683;-78
2023/08/05 10:00:37;;;;;;;;;;;;;;;25.67;42.77;100410.41;4902135;28;98276;-78
2023/08/05 10:03:07;;;;;;;;;;;;;;;25.77;42.79;100403.44;4888740;28;97999;-78
2023/08/05 10:05:34;;;;;;;;;;;;;;;25.87;42.54;100411.13;4872459;28;98253;-78
2023/08/05 10:08:00;;;;;;;;;;;;;;;25.82;42.67;100412.25;4903843;28;98366;-78
2023/08/05 10:10:28;;;;;;;;;;;;;;;25.74;42.86;100410.50;4901638;28;98927;-71
2023/08/05 10:13:08;;;;;;;;;;;;;;;25.69;42.87;100408.06;4910033;28;98345;-71
2023/08/05 10:15:47;;;;;;;;;;;;;;;25.61;43.07;100406.34;4891124;28;98371;-72
2023/08/05 10:18:16;;;;;;;;;;;;;;;25.53;43.39;100404.66;4890191;28;99970;-71
2023/08/05 10:20:43;;;;;;;;;;;;;;;25.44;43.06;100400.19;4871355;28;98214;-71
2023/08/05 10:23:13;;;;;;;;;;;;;;;25.36;43.20;100405.97;4888580;28;98196;-71
2023/08/05 10:25:40;;;;;;;;;;;;;;;25.24;43.35;100395.91;4868473;28;98089;-78
2023/08/05 10:28:11;;;;;;;;;;;;;;;25.15;43.47;100398.09;4907018;28;98602;-71
2023/08/05 10:30:42;;;;;;;;;;;;;;;25.06;43.54;100397.53;4907253;28;98158;-78
2023/08/05 10:33:09;;;;;;;;;;;;;;;24.94;43.61;100395.75;4872321;28;99265;-78
2023/08/05 10:35:42;;;;;;;;;;;;;;;24.86;43.75;100394.81;4888067;28;98477;-79
2023/08/05 10:38:22;;;;;;;;;;;;;;;24.81;43.79;100386.06;4888895;28;98117;-79
2023/08/05 10:40:51;;;;;;;;;;;;;;;24.72;43.86;100389.06;4892049;28;99907;-72
2023/08/05 10:43:32;;;;;;;;;;;;;;;24.66;43.85;100377.50;4892549;28;99680;-79
2023/08/05 10:45:59;;;;;;;;;;;;;;;24.64;43.80;100379.03;4916336;28;98282;-79
2023/08/05 10:48:45;;;;;;;;;;;;;;;24.60;43.68;100370.72;4872114;28;98351;-71
2023/08/05 10:51:14;;;;;;;;;;;;;;;24.58;43.79;100372.25;4888953;28;101944;-72
2023/08/05 10:53:56;;;;;;;;;;;;;;;24.49;43.52;100367.75;4868347;28;98062;-72
2023/08/05 10:56:32;;;;;;;;;;;;;;;24.45;43.66;100372.41;4904978;28;98143;-72
2023/08/05 10:59:03;;;;;;;;;;;;;;;24.40;43.74;100377.38;4890595;28;98216;-72
2023/08/05 11:01:55;;;;;;;;;;;;;;;24.33;44.02;100372.53;4896843;28;98864;-79
2023/08/05 11:04:29;;;;;;;;;;;;;;;24.27;43.97;100371.19;4905368;28;99510;-72
2023/08/05 11:06:57;;;;;;;;;;;;;;;24.19;44.11;100363.94;4904636;28;98388;-79
2023/08/05 11:09:23;;;;;;;;;;;;;;;24.12;43.88;100358.28;4869668;28;98642;-79
2023/08/05 11:11:52;;;;;;;;;;;;;;;24.06;43.88;100359.75;4873646;28;119861;-72
2023/08/05 11:14:21;;;;;;;;;;;;;;;23.99;44.02;100349.38;4869320;28;98855;-71
2023/08/05 11:16:48;;;;;;;;;;;;;;;23.93;44.19;100351.63;4889234;28;98319;-79
2023/08/05 11:19:15;;;;;;;;;;;;;;;23.90;43.87;100355.09;4890861;28;98798;-72
2023/08/05 11:21:47;;;;;;;;;;;;;;;23.89;44.09;100358.19;4887142;28;98503;-71
2023/08/05 11:24:17;;;;;;;;;;;;;;;23.86;44.12;100347.91;4887129;28;98114;-79
2023/08/05 11:26:49;;;;;;;;;;;;;;;23.88;43.77;100343.63;4872568;28;97980;-79
2023/08/05 11:29:15;;;;;;;;;;;;;;;23.90;44.03;100348.78;4903927;28;98189;-79
2023/08/05 11:31:51;;;;;;;;;;;;;;;23.90;43.93;100343.28;4904331;28;98120;-79
2023/08/05 11:34:22;;;;;;;;;;;;;;;23.87;43.74;100339.28;4885015;28;98128;-71
2023/08/05 11:36:57;;;;;;;;;;;;;;;23.87;43.78;100341.25;4906344;28;101972;-79
2023/08/05 11:39:27;;;;;;;;;;;;;;;23.87;43.79;100342.03;4896205;28;98074;-72
2023/08/05 11:41:54;;;;;;;;;;;;;;;23.87;43.90;100335.75;4905409;28;100876;-72
2023/08/05 11:44:21;;;;;;;;;;;;;;;23.87;43.90;100339.28;4865638;28;98192;-72
2023/08/05 11:46:49;;;;;;;;;;;;;;;23.89;43.61;100336.16;4869728;28;98068;-80
2023/08/05 11:49:16;;;;;;;;;;;;;;;23.90;43.60;100335.03;4871830;28;98252;-72
2023/08/05 11:51:54;;;;;;;;;;;;;;;23.89;43.74;100334.22;4902975;28;100745;-79
2023/08/05 11:54:32;;;;;;;;;;;;;;;23.89;43.89;100327.91;4887097;28;98810;-79
2023/08/05 11:56:59;;;;;;;;;;;;;;;23.92;43.62;100332.72;4880819;28;98767;-71
2023/08/05 11:59:44;;;;;;;;;;;;;;;23.90;43.50;100333.06;4871884;28;97934;-71
2023/08/05 12:02:11;;;;;;;;;;;;;;;23.89;43.57;100322.41;4924034;28;100243;-71
2023/08/05 12:04:46;;;;;;;;;;;;;;;23.88;43.83;100321.63;4876304;28;98174;-79
2023/08/05 12:07:19;;;;;;;;;;;;;;;23.90;43.55;100321.28;4908982;28;98020;-73
2023/08/05 12:10:02;;;;;;;;;;;;;;;23.90;43.84;100324.81;4885921;28;98325;-72
2023/08/05 12:12:30;;;;;;;;;;;;;;;23.88;43.67;100327.13;4902191;28;100159;-72
2023/08/05 12:15:19;;;;;;;;;;;;;;;23.87;43.84;100324.75;4872031;28;98531;-79
2023/08/05 12:17:47;;;;;;;;;;;;;;;23.85;43.79;100327.03;4920830;28;98294;-72
2023/08/05 12:20:21;;;;;;;;;;;;;;;23.84;43.81;100319.94;4886627;28;99091;-71
2023/08/05 12:22:48;;;;;;;;;;;;;;;23.84;43.52;100315.25;4871919;28;98089;-79
2023/08/05 12:25:16;;;;;;;;;;;;;;;23.86;43.54;100315.69;4868285;28;98321;-79
2023/08/05 12:27:43;;;;;;;;;;;;;;;23.87;43.48;100313.72;4896916;28;98346;-71
2023/08/05 12:30:12;;;;;;;;;;;;;;;23.84;43.35;100314.44;4869317;28;98423;-79
2023/08/05 12:32:39;;;;;;;;;;;;;;;23.80;43.91;100317.13;4886624;28;99465;-79
2023/08/05 12:35:07;;;;;;;;;;;;;;;23.75;43.92;100312.69;4896282;28;98435;-71
2023/08/05 12:37:35;;;;;;;;;;;;;;;23.70;43.99;100314.94;4872312;28;98391;-80
2023/08/05 12:40:02;;;;;;;;;;;;;;;23.62;43.65;100321.41;4891502;28;98004;-71
2023/08/05 12:42:29;;;;;;;;;;;;;;;23.52;44.15;100320.81;4890253;28;98916;-71